Terminal Aerodrome Forecast
Issued by NWS Brownsville, TX

Home | Current Version | Previous Version | Text Only | Print | Product List | Glossary On
Versions: 1 2 3 4 5 6 7 8 9 10 11 12 13 14 15 16 17 18 19 20 21 22
000
FTUS44 KBRO 212300 AAA
TAFBRO
TAF AMD
KBRO 212333Z 2200/2224 07007KT P6SM VCSH SCT030 BKN040 OVC150
      TEMPO 2200/2201 2SM +SHRA BKN025
     FM220400 03005KT P6SM SCT030 BKN150
     FM221400 04007KT P6SM VCSH SCT030 BKN060 PROB30 2214/2220 5SM
      -SHRA BKN030=

USA.gov is the U.S. government's official web portal to all federal, state and local government web resources and services.